»·PEaware :: UAL1219 KDEN-KSAT

UAL1219 :: KDEN-KSAT

FLIGHT INFORMATION

Flight Status: Arrived
Operator:
United Airlines
More flights by this operator :: More flights under this callsign
Pilot: Jamyson D. (13674)
Aircraft: BOEING 737-800
(B738)
More flights by this aircraft type
Origin: KDEN Denver Intl
United States
Destination: KSAT San Antonio Intl
United States
More flights between these airports :: More routes between these airports
Route: STAKR3 PYPER CME J15 JCT CSI2
File this flight plan on PilotEdge
Remarks: PBN / A1B1C1D1S1S2 DOF / 170809 REG / N806SB EET / KZAB0026 KZFW0104 KZHU0126 OPR / UAL RMK / TCAS SIMBRIEF
Altitude:
(Current/Filed)
35,000ft
Speed:
(Current/Filed)
459kts
Departed: 09-Aug-17 12:17 AM
Arrived: 09-Aug-17 02:10 AM
Distance/Time
Traveled:
691nm/1:53
Distance/Time
To Go:
Arrived

Flight Plot

Page will automatically refresh every two minutes.

Flight plan parsing failed; only flown route is shown


Map Options




Map Legend


Flown Route
Filed Route
Departure Airport
Arrival Airport
Navaid (VOR, NDB)
Fix

Horizontal Profiles

Position Reports

Time Latitude Longitude Heading Altitude Ground
Speed
08-Aug-17 23:55 39.858132 -104.674531 0 5324ft 0kts
08-Aug-17 23:56 39.858132 -104.674531 0 5324ft 0kts
08-Aug-17 23:57 39.858132 -104.674531 0 5324ft 0kts
09-Aug-17 00:02 39.858131 -104.674531 0 5324ft 0kts
09-Aug-17 00:03 39.858131 -104.674531 0 5324ft 0kts
09-Aug-17 00:04 39.858131 -104.674531 0 5324ft 0kts
09-Aug-17 00:05 39.858131 -104.674531 0 5324ft 0kts
09-Aug-17 00:06 39.858131 -104.674531 0 5324ft 0kts
09-Aug-17 00:07 39.858131 -104.674531 0 5324ft 0kts
09-Aug-17 00:08 39.858131 -104.674531 0 5324ft 0kts
09-Aug-17 00:09 39.858131 -104.674531 0 5324ft 0kts
09-Aug-17 00:10 39.858131 -104.674531 0 5324ft 0kts
09-Aug-17 00:11 39.858131 -104.674531 0 5324ft 0kts
09-Aug-17 00:12 39.858131 -104.674531 0 5324ft 0kts
09-Aug-17 00:13 39.858131 -104.674531 0 5324ft 0kts
09-Aug-17 00:14 39.858131 -104.674531 359 5324ft 0kts
09-Aug-17 00:15 39.856371 -104.674572 356 5325ft 0kts
09-Aug-17 00:16 39.856371 -104.674572 356 5325ft 0kts
09-Aug-17 00:17 39.856730 -104.674550 3 5324ft 15kts
09-Aug-17 00:18 39.856930 -104.664698 101 5324ft 19kts
09-Aug-17 00:19 39.856692 -104.660403 118 5324ft 6kts
09-Aug-17 00:20 39.838237 -104.660466 180 5325ft 163kts
09-Aug-17 00:21 39.785732 -104.660870 167 6828ft 239kts
09-Aug-17 00:22 39.715168 -104.620755 159 9214ft 292kts
09-Aug-17 00:23 39.638273 -104.583314 165 12132ft 309kts
09-Aug-17 00:24 39.554444 -104.554166 171 14896ft 324kts
09-Aug-17 00:25 39.465253 -104.534058 173 17477ft 337kts
09-Aug-17 00:26 39.373017 -104.513459 174 19863ft 350kts
09-Aug-17 00:27 39.269866 -104.490537 174 21103ft 398kts
09-Aug-17 00:28 39.161253 -104.465679 174 23404ft 409kts
09-Aug-17 00:29 39.048991 -104.435798 172 25380ft 424kts
09-Aug-17 00:30 38.933894 -104.403980 172 27270ft 433kts
09-Aug-17 00:31 38.826532 -104.374309 172 28882ft 442kts
09-Aug-17 00:32 38.707176 -104.341405 173 30416ft 452kts
09-Aug-17 00:33 38.597498 -104.258001 144 31710ft 482kts
09-Aug-17 00:34 38.499946 -104.153654 144 32914ft 492kts
09-Aug-17 00:35 38.396957 -104.042848 144 34459ft 491kts
09-Aug-17 00:36 38.293894 -103.932373 144 35217ft 488kts
09-Aug-17 00:37 38.191811 -103.823349 144 35222ft 488kts
09-Aug-17 00:38 38.083307 -103.721440 163 35240ft 492kts
09-Aug-17 00:39 37.954026 -103.711269 193 35227ft 468kts
09-Aug-17 00:40 37.829567 -103.735244 195 35222ft 466kts
09-Aug-17 00:41 37.703094 -103.761498 195 35228ft 466kts
09-Aug-17 00:42 37.576642 -103.787784 195 35257ft 466kts
09-Aug-17 00:43 37.450892 -103.813852 195 35266ft 466kts
09-Aug-17 00:44 37.324241 -103.840015 195 35292ft 466kts
09-Aug-17 00:45 37.197756 -103.866035 195 35303ft 466kts
09-Aug-17 00:46 37.071664 -103.891946 195 35303ft 465kts
09-Aug-17 00:47 36.946236 -103.917629 193 35302ft 463kts
09-Aug-17 00:48 36.823465 -103.942566 193 35329ft 463kts
09-Aug-17 00:49 36.697847 -103.968074 193 35338ft 463kts
09-Aug-17 00:50 36.572008 -103.993545 193 35338ft 463kts
09-Aug-17 00:51 36.446407 -104.018885 193 35338ft 463kts
09-Aug-17 00:52 36.320576 -104.044189 193 35338ft 463kts
09-Aug-17 00:53 36.194992 -104.069360 193 35318ft 463kts
09-Aug-17 00:54 36.069948 -104.094343 193 35309ft 463kts
09-Aug-17 00:55 35.943834 -104.119458 193 35288ft 463kts
09-Aug-17 00:56 35.819786 -104.144082 193 35211ft 463kts
09-Aug-17 00:57 35.693576 -104.169050 193 35213ft 464kts
09-Aug-17 00:58 35.567832 -104.193846 193 35220ft 463kts
09-Aug-17 00:59 35.441765 -104.218641 193 35217ft 463kts
09-Aug-17 01:00 35.315716 -104.243346 193 35224ft 463kts
09-Aug-17 01:01 35.189822 -104.267939 193 35244ft 463kts
09-Aug-17 01:02 35.063807 -104.292485 193 35244ft 463kts
09-Aug-17 01:03 34.937057 -104.317140 193 35245ft 472kts
09-Aug-17 01:04 34.809711 -104.341757 193 35242ft 476kts
09-Aug-17 01:05 34.681063 -104.366559 193 35244ft 475kts
09-Aug-17 01:06 34.552012 -104.391380 193 35244ft 475kts
09-Aug-17 01:07 34.422624 -104.416187 193 35244ft 475kts
09-Aug-17 01:08 34.293118 -104.440928 193 35244ft 475kts
09-Aug-17 01:09 34.163848 -104.465559 193 35228ft 476kts
09-Aug-17 01:10 34.034697 -104.490090 193 35199ft 476kts
09-Aug-17 01:11 33.905534 -104.514549 193 35199ft 476kts
09-Aug-17 01:12 33.778425 -104.538538 193 35197ft 476kts
09-Aug-17 01:13 33.648685 -104.562955 193 35197ft 476kts
09-Aug-17 01:14 33.519394 -104.587216 193 35196ft 476kts
09-Aug-17 01:15 33.389459 -104.609528 184 35175ft 480kts
09-Aug-17 01:16 33.266470 -104.550253 146 35207ft 499kts
09-Aug-17 01:17 33.158295 -104.449133 143 35208ft 499kts
09-Aug-17 01:18 33.051296 -104.347004 143 35208ft 496kts
09-Aug-17 01:19 32.944888 -104.245659 143 35208ft 491kts
09-Aug-17 01:20 32.840671 -104.146696 143 35209ft 491kts
09-Aug-17 01:21 32.734344 -104.046049 143 35201ft 492kts
09-Aug-17 01:22 32.628268 -103.945954 143 35183ft 492kts
09-Aug-17 01:23 32.522122 -103.846105 143 35199ft 491kts
09-Aug-17 01:24 32.416096 -103.746678 143 35213ft 491kts
09-Aug-17 01:25 32.309727 -103.647235 143 35192ft 491kts
09-Aug-17 01:26 32.203367 -103.548107 143 35194ft 491kts
09-Aug-17 01:27 32.096977 -103.449254 143 35178ft 491kts
09-Aug-17 01:28 31.990562 -103.350677 143 35178ft 491kts
09-Aug-17 01:29 31.888024 -103.250165 130 35165ft 495kts
09-Aug-17 01:30 31.826494 -103.106669 113 35173ft 500kts
09-Aug-17 01:31 31.772706 -102.956934 113 35173ft 503kts
09-Aug-17 01:32 31.718918 -102.806757 113 35194ft 503kts
09-Aug-17 01:33 31.664958 -102.656750 113 35212ft 503kts
09-Aug-17 01:34 31.610595 -102.506298 113 35213ft 503kts
09-Aug-17 01:35 31.556384 -102.356922 113 35210ft 503kts
09-Aug-17 01:36 31.502327 -102.208615 113 35200ft 503kts
09-Aug-17 01:37 31.448210 -102.060773 113 35169ft 477kts
09-Aug-17 01:38 31.396436 -101.919947 113 35211ft 484kts
09-Aug-17 01:39 31.343694 -101.777064 113 35201ft 482kts
09-Aug-17 01:40 31.290836 -101.634457 113 35191ft 482kts
09-Aug-17 01:41 31.237907 -101.492242 113 35185ft 482kts
09-Aug-17 01:42 31.184727 -101.349930 114 35186ft 482kts
09-Aug-17 01:43 31.132063 -101.209631 114 35181ft 482kts
09-Aug-17 01:44 31.078499 -101.067507 114 35182ft 482kts
09-Aug-17 01:45 31.024759 -100.925504 114 35171ft 482kts
09-Aug-17 01:46 30.971374 -100.784992 114 35166ft 476kts
09-Aug-17 01:47 30.918544 -100.646488 113 35180ft 468kts
09-Aug-17 01:48 30.868093 -100.514701 113 35190ft 462kts
09-Aug-17 01:49 30.816071 -100.379327 113 35191ft 463kts
09-Aug-17 01:50 30.765583 -100.248431 114 34765ft 458kts
09-Aug-17 01:51 30.713952 -100.115096 114 32591ft 457kts
09-Aug-17 01:52 30.661925 -99.981223 114 30434ft 454kts
09-Aug-17 01:53 30.611618 -99.852249 114 28221ft 433kts
09-Aug-17 01:54 30.534681 -99.748719 135 26210ft 424kts
09-Aug-17 01:55 30.452055 -99.657113 136 24282ft 409kts
09-Aug-17 01:56 30.371880 -99.569218 136 22427ft 398kts
09-Aug-17 01:57 30.293199 -99.483226 136 20609ft 386kts
09-Aug-17 01:58 30.216844 -99.399972 136 18845ft 376kts
09-Aug-17 01:59 30.142812 -99.319429 136 17049ft 365kts
09-Aug-17 02:00 30.070794 -99.241248 136 15384ft 356kts
09-Aug-17 02:01 29.999968 -99.164518 136 13751ft 347kts
09-Aug-17 02:02 29.931135 -99.090100 136 12166ft 339kts
09-Aug-17 02:03 29.865647 -99.019437 136 10651ft 318kts
09-Aug-17 02:04 29.822289 -98.940851 112 9974ft 276kts
09-Aug-17 02:05 29.792325 -98.860195 112 7983ft 275kts
09-Aug-17 02:06 29.770874 -98.779221 88 6092ft 265kts
09-Aug-17 02:07 29.732258 -98.719233 140 5236ft 229kts
09-Aug-17 02:08 29.686104 -98.668951 132 4746ft 227kts
09-Aug-17 02:09 29.645996 -98.618557 130 3807ft 200kts
09-Aug-17 02:10 29.612320 -98.575189 129 2888ft 174kts
09-Aug-17 02:11 29.582536 -98.536775 129 2018ft 160kts
09-Aug-17 02:12 29.553234 -98.499140 129 1176ft 158kts
09-Aug-17 02:13 29.532387 -98.472923 162 817ft 25kts
09-Aug-17 02:14 29.529471 -98.473207 221 817ft 5kts
09-Aug-17 02:15 29.528825 -98.473017 132 817ft 2kts
09-Aug-17 02:16 29.528787 -98.472970 132 817ft 0kts
09-Aug-17 02:17 29.528787 -98.472970 132 817ft 0kts
09-Aug-17 02:18 29.528787 -98.472970 132 817ft 0kts
09-Aug-17 02:19 29.528787 -98.472970 132 817ft 0kts
09-Aug-17 02:20 29.528787 -98.472970 132 817ft 0kts
09-Aug-17 02:21 29.528787 -98.472970 132 817ft 0kts
09-Aug-17 02:22 29.528787 -98.472970 132 817ft 0kts
09-Aug-17 02:23 29.528787 -98.472970 132 817ft 0kts
09-Aug-17 02:24 29.528787 -98.472970 132 817ft 0kts
09-Aug-17 02:25 29.528787 -98.472970 132 817ft 0kts
09-Aug-17 02:26 29.528787 -98.472970 132 817ft 0kts
09-Aug-17 02:27 29.528787 -98.472970 132 817ft 0kts

Navigation Log

Ident Type
Flight plan parsing failed, navigation log unavailable